Wheeler Observed Data For Previous 48 Hours

Caption
Day and Hour Reservoir Elevation (behind dam)* Tailwater Elevation (below dam)* Average Hourly Discharge*
12/4/2019 1 AM CST 554.54 507.38 118,561
12/4/2019 2 AM CST 554.54 507.35 118,403
12/4/2019 3 AM CST 554.56 507.32 118,320
12/4/2019 4 AM CST 554.56 507.28 118,505
12/4/2019 5 AM CST 554.56 507.23 118,055
12/4/2019 6 AM CST 554.56 507.21 118,052
12/4/2019 7 AM CST 554.57 507.17 117,779
12/4/2019 8 AM CST 554.59 507.16 117,928
12/4/2019 9 AM CST 554.59 507.09 117,851
12/4/2019 10 AM CST 554.59 507.09 117,832
12/4/2019 11 AM CST 554.60 507.10 117,841
12/4/2019 12 PM CST 554.60 507.09 117,693
12/4/2019 1 PM CST 554.60 507.08 116,860
12/4/2019 2 PM CST 554.61 507.10 116,844
12/4/2019 3 PM CST 554.61 507.08 116,763
12/4/2019 4 PM CST 554.62 507.11 117,001
12/4/2019 5 PM CST 554.62 507.13 116,922
12/4/2019 6 PM CST 554.64 507.13 116,860
12/4/2019 7 PM CST 554.65 507.15 116,776
12/4/2019 8 PM CST 554.66 507.13 117,013
12/4/2019 9 PM CST 554.66 507.13 117,072
12/4/2019 10 PM CST 554.67 507.16 116,826
12/4/2019 11 PM CST 554.67 507.17 116,944
12/5/2019 12 AM CST 554.69 507.20 116,955
12/5/2019 1 AM CST 554.71 507.20 117,076
12/5/2019 2 AM CST 554.71 507.23 117,063
12/5/2019 3 AM CST 554.72 507.20 117,076
12/5/2019 4 AM CST 554.72 507.22 117,020
12/5/2019 5 AM CST 554.72 507.21 117,120
12/5/2019 6 AM CST 554.73 507.21 117,070
12/5/2019 7 AM CST 554.73 507.23 116,979
12/5/2019 8 AM CST 554.74 507.23 117,067
12/5/2019 9 AM CST 554.74 507.32 117,119
12/5/2019 10 AM CST 554.75 507.32 117,232
12/5/2019 11 AM CST 554.76 507.25 117,253
12/5/2019 12 PM CST 554.76 507.29 117,095
12/5/2019 1 PM CST 554.75 507.31 117,156
12/5/2019 2 PM CST 554.74 507.31 117,078
12/5/2019 3 PM CST 554.73 507.30 117,153
12/5/2019 4 PM CST 554.70 507.34 117,037
12/5/2019 5 PM CST 554.70 507.35 117,227
12/5/2019 6 PM CST 554.69 507.34 117,169
12/5/2019 7 PM CST 554.68 507.34 117,060
12/5/2019 8 PM CST 554.65 507.36 117,021
12/5/2019 9 PM CST 554.64 507.36 117,134
12/5/2019 10 PM CST 554.63 507.37 117,036
12/5/2019 11 PM CST 554.61 507.37 116,952
12/6/2019 12 AM CST 554.61 507.39 117,017
12/6/2019 1 AM CST 554.59 507.43 117,187
12/6/2019 2 AM CST 554.56 507.42 117,056
12/6/2019 3 AM CST 554.53 507.43 116,980
12/6/2019 4 AM CST 554.52 507.43 116,913
12/6/2019 5 AM CST 554.50 507.45 116,973
12/6/2019 6 AM CST 554.48 507.45 116,883
12/6/2019 7 AM CST 554.45 507.44 116,891
12/6/2019 8 AM CST 554.44 507.47 117,142
12/6/2019 9 AM CST 554.39 507.49 127,303
12/6/2019 10 AM CST 554.40 507.44 111,875
12/6/2019 11 AM CST 554.35 507.66 112,590
12/6/2019 12 PM CST 554.33 507.69 120,332
12/6/2019 1 PM CST 554.28 507.72 120,404
12/6/2019 2 PM CST 554.35 506.62 99,844
12/6/2019 3 PM CST 554.34 506.55 98,872
12/6/2019 4 PM CST 554.32 506.50 98,819
12/6/2019 5 PM CST 554.30 506.57 98,953
12/6/2019 6 PM CST 554.29 507.07 106,692
12/6/2019 7 PM CST 554.28 507.05 108,138
12/6/2019 8 PM CST 554.26 507.06 107,930
12/6/2019 9 PM CST 554.25 507.02 108,717

Elevations are in feet above sea level. Discharges are in cubic feet per second and are reported at the end of the hour.